createdAt,value
2018-08-13T00:00:16.052Z,19.4
2018-08-13T00:01:15.960Z,19.5
2018-08-13T00:02:15.942Z,19.4
2018-08-13T00:03:15.872Z,19.4
2018-08-13T00:04:15.816Z,19.3
2018-08-13T00:05:16.191Z,19.4
2018-08-13T00:06:16.123Z,19.4
2018-08-13T00:07:19.084Z,19.3
2018-08-13T00:08:18.993Z,19.3
2018-08-13T00:09:19.132Z,19.3
2018-08-13T00:10:19.050Z,19.3
2018-08-13T00:11:18.959Z,19.2
2018-08-13T00:12:19.936Z,19.3
2018-08-13T00:13:20.075Z,19.3
2018-08-13T00:14:25.498Z,19.2
2018-08-13T00:15:28.656Z,19.2
2018-08-13T00:16:28.802Z,19.2
2018-08-13T00:17:29.257Z,19.3
2018-08-13T00:18:29.406Z,19.3
2018-08-13T00:19:32.131Z,19.2
2018-08-13T00:20:32.075Z,19.2
2018-08-13T00:21:31.976Z,19.2
2018-08-13T00:22:32.145Z,19.2
2018-08-13T00:23:32.273Z,19.1
2018-08-13T00:24:32.193Z,19.2
2018-08-13T00:25:33.555Z,19.2
2018-08-13T00:26:34.499Z,19.2
2018-08-13T00:27:34.478Z,19.2
2018-08-13T00:28:34.621Z,19.2
2018-08-13T00:29:34.544Z,19.2
2018-08-13T00:30:40.375Z,19.2
2018-08-13T00:31:43.158Z,19.2
2018-08-13T00:32:45.985Z,19.3
2018-08-13T00:33:45.909Z,19.3
2018-08-13T00:34:45.845Z,19.3
2018-08-13T00:35:48.922Z,19.3
2018-08-13T00:36:48.847Z,19.4
2018-08-13T00:37:49.018Z,19.3
2018-08-13T00:38:48.923Z,19.3
2018-08-13T00:39:49.054Z,19.3
2018-08-13T00:40:48.965Z,19.3
2018-08-13T00:41:52.938Z,19.3
2018-08-13T00:42:53.084Z,19.4
2018-08-13T00:43:53.006Z,19.3
2018-08-13T00:44:52.911Z,19.3
2018-08-13T00:45:56.492Z,19.4
2018-08-13T00:46:56.416Z,19.4
2018-08-13T00:47:56.566Z,19.3
2018-08-13T00:48:56.476Z,19.3
2018-08-13T00:49:56.611Z,19.4
2018-08-13T00:50:56.538Z,19.5
2018-08-13T00:51:56.686Z,19.4
2018-08-13T00:52:59.570Z,19.4
2018-08-13T00:53:59.521Z,19.5
2018-08-13T00:54:59.449Z,19.5
2018-08-13T00:56:00.870Z,19.5
2018-08-13T00:57:00.781Z,19.5
2018-08-13T00:58:00.922Z,19.5
2018-08-13T00:59:00.861Z,19.5
2018-08-13T01:00:00.777Z,19.5
2018-08-13T01:01:00.690Z,19.4
2018-08-13T01:02:00.614Z,19.4
2018-08-13T01:03:00.530Z,19.4
2018-08-13T01:04:00.501Z,19.3
2018-08-13T01:05:00.412Z,19.4
2018-08-13T01:06:01.772Z,19.4
2018-08-13T01:07:02.727Z,19.3
2018-08-13T01:08:02.634Z,19.3
2018-08-13T01:09:03.634Z,19.3
2018-08-13T01:10:03.541Z,19.3
2018-08-13T01:11:03.675Z,19.2
2018-08-13T01:12:03.587Z,19.3
2018-08-13T01:13:03.525Z,19.3
2018-08-13T01:14:03.439Z,19.3
2018-08-13T01:15:04.397Z,19.3
2018-08-13T01:16:07.557Z,19.2
2018-08-13T01:17:07.464Z,19.2
2018-08-13T01:18:08.368Z,19.2
2018-08-13T01:19:10.884Z,19.2
2018-08-13T01:20:10.814Z,19.2
2018-08-13T01:21:10.716Z,19.2
2018-08-13T01:22:10.851Z,19.2
2018-08-13T01:23:10.754Z,19.3
2018-08-13T01:24:10.666Z,19.2
2018-08-13T01:25:14.562Z,19.3
2018-08-13T01:26:14.931Z,19.3
2018-08-13T01:27:14.897Z,19.3
2018-08-13T01:28:14.813Z,19.3
2018-08-13T01:29:14.741Z,19.3
2018-08-13T01:30:14.670Z,19.4
2018-08-13T01:31:14.906Z,19.3
2018-08-13T01:32:14.825Z,19.2
2018-08-13T01:33:20.589Z,19.2
2018-08-13T01:34:20.485Z,19.2
2018-08-13T01:35:24.081Z,19.1
2018-08-13T01:36:24.469Z,19.2
2018-08-13T01:37:24.373Z,19.1
2018-08-13T01:38:24.300Z,19.1
2018-08-13T01:39:24.238Z,19.1
2018-08-13T01:40:24.149Z,19.1
2018-08-13T01:41:24.062Z,19
2018-08-13T01:42:23.993Z,19
2018-08-13T01:43:23.959Z,18.9
2018-08-13T01:44:23.873Z,18.9
2018-08-13T01:45:23.773Z,18.9
2018-08-13T01:46:24.154Z,18.9
2018-08-13T01:47:24.734Z,18.8
2018-08-13T01:48:24.636Z,18.8
2018-08-13T01:49:24.548Z,18.8
2018-08-13T01:50:24.475Z,18.9
2018-08-13T01:51:24.405Z,18.7
2018-08-13T01:52:24.336Z,18.8
2018-08-13T01:53:24.236Z,18.9
2018-08-13T01:54:24.190Z,18.8
2018-08-13T01:55:24.106Z,18.8
2018-08-13T01:56:24.512Z,18.8
2018-08-13T01:57:24.473Z,18.8
2018-08-13T01:58:24.387Z,18.8
2018-08-13T01:59:24.328Z,18.8
2018-08-13T02:00:24.234Z,18.8
2018-08-13T02:01:24.460Z,18.8
2018-08-13T02:02:24.613Z,18.8
2018-08-13T02:03:24.523Z,18.9
2018-08-13T02:04:24.451Z,18.9
2018-08-13T02:05:24.380Z,18.9
2018-08-13T02:06:24.723Z,18.8
2018-08-13T02:07:24.651Z,18.9
2018-08-13T02:08:24.558Z,18.9
2018-08-13T02:09:24.538Z,18.8
2018-08-13T02:10:24.440Z,18.8
2018-08-13T02:11:24.348Z,18.8
2018-08-13T02:12:24.305Z,18.8
2018-08-13T02:13:24.212Z,18.7
2018-08-13T02:14:24.123Z,18.8
2018-08-13T02:15:24.073Z,18.7
2018-08-13T02:16:24.448Z,18.7
2018-08-13T02:17:24.423Z,18.7
2018-08-13T02:18:24.327Z,18.7
2018-08-13T02:19:24.250Z,18.7
2018-08-13T02:20:24.184Z,18.7
2018-08-13T02:21:24.103Z,18.7
2018-08-13T02:22:24.102Z,18.6
2018-08-13T02:23:24.025Z,18.6
2018-08-13T02:24:24.161Z,18.5
2018-08-13T02:25:24.090Z,18.5
2018-08-13T02:26:24.461Z,18.4
2018-08-13T02:27:24.420Z,18.3
2018-08-13T02:28:24.343Z,18.3
2018-08-13T02:29:24.244Z,18.4
2018-08-13T02:30:24.150Z,18.3
2018-08-13T02:31:24.079Z,18.4
2018-08-13T02:32:24.040Z,18.4
2018-08-13T02:33:23.954Z,18.4
2018-08-13T02:34:23.862Z,18.4
2018-08-13T02:35:24.798Z,18.3
2018-08-13T02:36:25.200Z,18.3
2018-08-13T02:37:25.171Z,18.3
2018-08-13T02:38:25.101Z,18.3
2018-08-13T02:39:25.097Z,18.3
2018-08-13T02:40:25.045Z,18.3
2018-08-13T02:41:24.989Z,18.3
2018-08-13T02:42:24.915Z,18.3
2018-08-13T02:43:24.838Z,18.4
2018-08-13T02:44:24.749Z,18.3
2018-08-13T02:45:24.685Z,18.4
2018-08-13T02:46:25.119Z,18.4
2018-08-13T02:47:25.046Z,18.4
2018-08-13T02:48:24.976Z,18.4
2018-08-13T02:49:24.916Z,18.4
2018-08-13T02:50:24.846Z,18.5
2018-08-13T02:51:24.755Z,18.4
2018-08-13T02:52:24.681Z,18.5
2018-08-13T02:53:24.614Z,18.4
2018-08-13T02:54:24.529Z,18.5
2018-08-13T02:55:24.472Z,18.4
2018-08-13T02:56:24.867Z,18.4
2018-08-13T02:57:24.794Z,18.4
2018-08-13T02:58:24.743Z,18.3
2018-08-13T02:59:24.662Z,18.4
2018-08-13T03:00:24.591Z,18.4
2018-08-13T03:01:24.513Z,18.5
2018-08-13T03:02:24.439Z,18.5
2018-08-13T03:03:24.392Z,18.5
2018-08-13T03:04:24.564Z,18.5
2018-08-13T03:05:24.504Z,18.4
2018-08-13T03:06:24.909Z,18.5
2018-08-13T03:07:24.833Z,18.5
2018-08-13T03:08:24.746Z,18.5
2018-08-13T03:09:24.695Z,18.5
2018-08-13T03:10:24.606Z,18.5
2018-08-13T03:11:24.536Z,18.5
2018-08-13T03:12:24.442Z,18.4
2018-08-13T03:13:24.347Z,18.4
2018-08-13T03:14:24.302Z,18.5
2018-08-13T03:15:24.231Z,18.4
2018-08-13T03:16:24.611Z,18.4
2018-08-13T03:17:24.551Z,18.3
2018-08-13T03:18:24.457Z,18.4
2018-08-13T03:19:24.364Z,18.3
2018-08-13T03:20:24.323Z,18.3
2018-08-13T03:21:24.261Z,18.3
2018-08-13T03:22:25.165Z,18.3
2018-08-13T03:23:25.074Z,18.3
2018-08-13T03:24:25.216Z,18.2
2018-08-13T03:25:25.193Z,18.2
2018-08-13T03:26:25.606Z,18.3
2018-08-13T03:27:25.537Z,18.3
2018-08-13T03:28:25.451Z,18.3
2018-08-13T03:29:25.381Z,18.3
2018-08-13T03:30:25.418Z,18.3
2018-08-13T03:31:25.422Z,18.3
2018-08-13T03:32:25.341Z,18.3
2018-08-13T03:33:25.372Z,18.2
2018-08-13T03:34:25.493Z,18.2
2018-08-13T03:35:25.414Z,18.2
2018-08-13T03:36:25.772Z,18.2
2018-08-13T03:37:25.683Z,18.2
2018-08-13T03:38:25.583Z,18.2
2018-08-13T03:39:25.530Z,18.2
2018-08-13T03:40:25.441Z,18.1
2018-08-13T03:41:25.369Z,18.1
2018-08-13T03:42:25.285Z,18.1
2018-08-13T03:43:25.205Z,18.1
2018-08-13T03:44:25.194Z,18.2
2018-08-13T03:45:25.125Z,18.2
2018-08-13T03:46:25.470Z,18.2
2018-08-13T03:47:25.388Z,18.1
2018-08-13T03:48:25.302Z,18.2
2018-08-13T03:49:25.218Z,18.2
2018-08-13T03:50:25.132Z,18.2
2018-08-13T03:51:25.053Z,18.2
2018-08-13T03:52:25.000Z,18.3
2018-08-13T03:53:24.935Z,18.2
2018-08-13T03:54:24.849Z,18.2
2018-08-13T03:55:24.789Z,18.2
2018-08-13T03:56:25.224Z,18.2
2018-08-13T03:57:25.130Z,18.1
2018-08-13T03:58:25.025Z,18.1
2018-08-13T03:59:24.940Z,18.2
2018-08-13T04:00:24.842Z,18.1
2018-08-13T04:01:24.746Z,18.1
2018-08-13T04:02:24.705Z,18.1
2018-08-13T04:03:24.632Z,18.2
2018-08-13T04:04:24.536Z,18.2
2018-08-13T04:05:24.442Z,18.2
2018-08-13T04:06:24.841Z,18.2
2018-08-13T04:07:24.773Z,18.3
2018-08-13T04:08:24.674Z,18.3
2018-08-13T04:09:24.607Z,18.4
2018-08-13T04:10:24.533Z,18.3
2018-08-13T04:11:24.437Z,18.4
2018-08-13T04:12:24.333Z,18.5
2018-08-13T04:13:24.259Z,18.5
2018-08-13T04:14:24.183Z,18.5
2018-08-13T04:15:24.111Z,18.5
2018-08-13T04:16:24.464Z,18.5
2018-08-13T04:17:24.381Z,18.5
2018-08-13T04:18:24.303Z,18.5
2018-08-13T04:19:24.201Z,18.5
2018-08-13T04:20:24.099Z,18.5
2018-08-13T04:21:24.019Z,18.5
2018-08-13T04:22:23.954Z,18.5
2018-08-13T04:23:24.096Z,18.5
2018-08-13T04:24:24.006Z,18.5
2018-08-13T04:25:23.916Z,18.4
2018-08-13T04:26:24.274Z,18.4
2018-08-13T04:27:24.196Z,18.4
2018-08-13T04:28:24.138Z,18.4
2018-08-13T04:29:24.278Z,18.3
2018-08-13T04:30:24.214Z,18.4
2018-08-13T04:31:24.139Z,18.4
2018-08-13T04:32:24.054Z,18.4
2018-08-13T04:33:24.037Z,18.4
2018-08-13T04:34:26.199Z,18.4
2018-08-13T04:35:29.124Z,18.4
2018-08-13T04:36:29.560Z,18.4
2018-08-13T04:37:29.473Z,18.5
2018-08-13T04:38:29.442Z,18.5
2018-08-13T04:39:29.432Z,18.5
2018-08-13T04:40:29.338Z,18.5
2018-08-13T04:41:29.246Z,18.5
2018-08-13T04:42:29.160Z,18.5
2018-08-13T04:43:29.088Z,18.5
2018-08-13T04:44:29.010Z,18.5
2018-08-13T04:45:28.920Z,18.4
2018-08-13T04:46:29.272Z,18.4
2018-08-13T04:47:29.238Z,18.4
2018-08-13T04:48:29.150Z,18.4
2018-08-13T04:49:29.101Z,18.4
2018-08-13T04:50:29.019Z,18.5
2018-08-13T04:51:28.932Z,18.5
2018-08-13T04:52:28.839Z,18.5
2018-08-13T04:53:28.746Z,18.4
2018-08-13T04:54:28.674Z,18.5
2018-08-13T04:55:28.577Z,18.4
2018-08-13T04:56:29.460Z,18.4
2018-08-13T04:57:29.389Z,18.4
2018-08-13T04:58:29.293Z,18.4
2018-08-13T04:59:29.222Z,18.3
2018-08-13T05:00:29.357Z,18.3
2018-08-13T05:01:29.273Z,18.3
2018-08-13T05:02:29.195Z,18.3
2018-08-13T05:03:29.100Z,18.3
2018-08-13T05:04:29.032Z,18.3
2018-08-13T05:05:28.928Z,18.3
2018-08-13T05:06:29.289Z,18.4
2018-08-13T05:07:29.721Z,18.4
2018-08-13T05:08:30.150Z,18.3
2018-08-13T05:09:30.783Z,18.4
2018-08-13T05:10:34.774Z,18.5
2018-08-13T05:11:35.682Z,18.6
2018-08-13T05:12:36.616Z,18.6
2018-08-13T05:13:36.520Z,18.7
2018-08-13T05:14:37.386Z,18.8
2018-08-13T05:15:37.288Z,18.9
2018-08-13T05:16:38.628Z,19
2018-08-13T05:17:38.799Z,19.1
2018-08-13T05:18:38.720Z,19.2
2018-08-13T05:19:39.660Z,19.3
2018-08-13T05:20:39.568Z,19.4
2018-08-13T05:21:39.492Z,19.6
2018-08-13T05:22:39.414Z,19.7
2018-08-13T05:23:39.541Z,19.9
2018-08-13T05:24:39.466Z,20
2018-08-13T05:25:39.424Z,20.2
2018-08-13T05:26:42.945Z,20.4
2018-08-13T05:27:42.979Z,20.5
2018-08-13T05:28:42.892Z,20.6
2018-08-13T05:29:43.817Z,20.9
2018-08-13T05:30:43.747Z,20.9
2018-08-13T05:31:44.673Z,21
2018-08-13T05:32:44.586Z,21.1
2018-08-13T05:33:45.167Z,21.2
2018-08-13T05:34:45.099Z,21.2
2018-08-13T05:35:51.177Z,21.4
2018-08-13T05:36:51.540Z,21.4
2018-08-13T05:37:57.064Z,21.6
2018-08-13T05:38:56.959Z,21.7
2018-08-13T05:39:59.589Z,21.9
2018-08-13T05:40:59.553Z,22
2018-08-13T05:41:59.458Z,22
2018-08-13T05:42:59.373Z,22.2
2018-08-13T05:44:02.628Z,22.3
2018-08-13T05:45:02.566Z,22.4
2018-08-13T05:46:02.549Z,22.5
2018-08-13T05:47:02.915Z,22.5
2018-08-13T05:48:03.054Z,22.4
2018-08-13T05:49:02.972Z,22.5
2018-08-13T05:50:06.892Z,22.7
2018-08-13T05:51:06.801Z,22.7
2018-08-13T05:52:07.814Z,22.7
2018-08-13T05:53:07.720Z,22.8
2018-08-13T05:54:07.750Z,22.8
2018-08-13T05:55:07.690Z,22.9
2018-08-13T05:56:07.822Z,23
2018-08-13T05:57:08.272Z,23.1
2018-08-13T05:58:08.183Z,23.2
2018-08-13T05:59:10.978Z,23.3
2018-08-13T06:00:10.976Z,23.2
2018-08-13T06:01:20.019Z,23.2
2018-08-13T06:02:19.937Z,23.1
2018-08-13T06:03:19.850Z,23.2
2018-08-13T06:04:25.565Z,23.3
2018-08-13T06:05:25.487Z,23.4
2018-08-13T06:06:26.330Z,23.7
2018-08-13T06:07:33.549Z,23.7
2018-08-13T06:08:33.469Z,23.5
2018-08-13T06:09:33.408Z,23.7
2018-08-13T06:10:36.095Z,23.8
2018-08-13T06:11:36.257Z,23.9
2018-08-13T06:12:36.461Z,23.9
2018-08-13T06:13:36.606Z,24
2018-08-13T06:14:36.824Z,24.1
2018-08-13T06:15:36.777Z,24.3
2018-08-13T06:16:36.699Z,24.5
2018-08-13T06:17:37.659Z,24.6
2018-08-13T06:18:46.509Z,24.7
2018-08-13T06:19:49.235Z,24.7
2018-08-13T06:20:49.186Z,24.6
2018-08-13T06:21:49.089Z,24.8
2018-08-13T06:22:53.027Z,24.8
2018-08-13T06:23:52.935Z,24.8
2018-08-13T06:24:53.081Z,24.8
2018-08-13T06:25:53.046Z,25
2018-08-13T06:26:52.953Z,25.2
2018-08-13T06:27:53.300Z,25.2
2018-08-13T06:28:53.433Z,25.1
2018-08-13T06:29:53.378Z,25.2
2018-08-13T06:30:53.276Z,25.2
2018-08-13T06:31:53.196Z,25.4
2018-08-13T06:32:53.761Z,25.5
2018-08-13T06:33:53.837Z,25.5
2018-08-13T06:34:54.133Z,25.6
2018-08-13T06:35:54.037Z,25.1
2018-08-13T06:36:54.173Z,24.2
2018-08-13T06:37:55.087Z,23.5
2018-08-13T06:38:55.882Z,23
2018-08-13T06:39:55.802Z,22.8
2018-08-13T06:40:55.725Z,22.5
2018-08-13T06:41:55.648Z,22.3
2018-08-13T06:42:55.615Z,22.3
2018-08-13T06:43:56.543Z,22.4
2018-08-13T06:44:56.923Z,22.5
2018-08-13T06:45:59.558Z,22.6
2018-08-13T06:46:59.912Z,22.9
2018-08-13T06:48:01.748Z,22.6
2018-08-13T06:49:01.665Z,22.5
2018-08-13T06:50:04.641Z,22.2
2018-08-13T06:51:04.546Z,22.2
2018-08-13T06:52:08.034Z,22.6
2018-08-13T06:53:07.951Z,22.9
2018-08-13T06:54:10.613Z,23
2018-08-13T06:55:19.540Z,23.4
2018-08-13T06:56:19.445Z,23.2
2018-08-13T06:57:19.389Z,23.4
2018-08-13T06:58:19.937Z,24
2018-08-13T06:59:20.067Z,24.6
2018-08-13T07:00:19.961Z,25
2018-08-13T07:01:29.195Z,25.1
2018-08-13T07:02:29.117Z,25.2
2018-08-13T07:03:30.013Z,25.5
2018-08-13T07:04:32.480Z,25.7
2018-08-13T07:05:32.383Z,26.1
2018-08-13T07:06:32.299Z,26.2
2018-08-13T07:07:32.228Z,26.3
2018-08-13T07:08:33.935Z,26.4
2018-08-13T07:09:34.836Z,26.7
2018-08-13T07:10:34.776Z,26.8
2018-08-13T07:11:34.683Z,26.9
2018-08-13T07:12:34.610Z,26.9
2018-08-13T07:13:34.507Z,27.2
2018-08-13T07:14:34.415Z,27.2
2018-08-13T07:15:38.435Z,27.1
2018-08-13T07:16:41.210Z,27.2
2018-08-13T07:17:41.161Z,27.4
2018-08-13T07:18:41.719Z,27.5
2018-08-13T07:19:41.624Z,27.4
2018-08-13T07:20:41.537Z,27.4
2018-08-13T07:21:41.693Z,27.6
2018-08-13T07:22:41.613Z,27.8
2018-08-13T07:23:41.538Z,27.9
2018-08-13T07:24:41.458Z,28.1
2018-08-13T07:25:41.387Z,28.4
2018-08-13T07:26:41.288Z,28.6
2018-08-13T07:27:41.258Z,28.7
2018-08-13T07:28:42.571Z,28.8
2018-08-13T07:29:45.449Z,28.9
2018-08-13T07:30:45.580Z,28.9
2018-08-13T07:31:45.502Z,29.1
2018-08-13T07:32:45.456Z,29.1
2018-08-13T07:33:45.782Z,29.1
2018-08-13T07:34:46.068Z,29.1
2018-08-13T07:35:46.188Z,29.3
2018-08-13T07:36:49.068Z,29.2
2018-08-13T07:37:48.981Z,29.3
2018-08-13T07:38:49.409Z,29.1
2018-08-13T07:39:49.339Z,28.9
2018-08-13T07:40:49.516Z,29
2018-08-13T07:41:49.416Z,29
2018-08-13T07:42:49.336Z,29.1
2018-08-13T07:43:49.324Z,29.4
2018-08-13T07:44:49.238Z,29.4
2018-08-13T07:45:49.239Z,29.5
2018-08-13T07:46:49.145Z,29.5
2018-08-13T07:47:49.152Z,29.4
2018-08-13T07:48:49.487Z,29.5
2018-08-13T07:49:49.652Z,29.6
2018-08-13T07:50:50.856Z,29.6
2018-08-13T07:51:51.124Z,29.6
2018-08-13T07:52:51.644Z,29.7
2018-08-13T07:53:51.558Z,29.6
2018-08-13T07:54:54.297Z,29.6
2018-08-13T07:55:54.209Z,29.8
2018-08-13T07:56:54.122Z,29.8
2018-08-13T07:57:54.339Z,29.9
2018-08-13T07:58:54.769Z,30.1
2018-08-13T07:59:54.756Z,30.1
2018-08-13T08:00:54.874Z,30.1
2018-08-13T08:01:54.783Z,30.2
2018-08-13T08:02:54.790Z,30.2
2018-08-13T08:03:54.690Z,30.2
2018-08-13T08:04:54.619Z,30.2
2018-08-13T08:05:54.523Z,30.2
2018-08-13T08:06:54.516Z,30.2
2018-08-13T08:07:54.427Z,30.1
2018-08-13T08:08:54.799Z,29.9
2018-08-13T08:09:54.694Z,29.8
2018-08-13T08:10:54.622Z,29.7
2018-08-13T08:11:54.534Z,29.6
2018-08-13T08:12:55.111Z,29.5
2018-08-13T08:13:55.067Z,29.5
2018-08-13T08:14:54.980Z,29.4
2018-08-13T08:15:54.911Z,29.2
2018-08-13T08:16:54.819Z,29.1
2018-08-13T08:17:54.804Z,29.1
2018-08-13T08:18:55.157Z,29
2018-08-13T08:19:55.078Z,28.9
2018-08-13T08:20:55.048Z,28.9
2018-08-13T08:21:54.987Z,28.8
2018-08-13T08:22:54.906Z,28.8
2018-08-13T08:23:54.820Z,28.7
2018-08-13T08:24:54.734Z,28.6
2018-08-13T08:25:55.668Z,28.5
2018-08-13T08:26:55.581Z,28.6
2018-08-13T08:27:55.470Z,28.6
2018-08-13T08:28:55.835Z,28.6
2018-08-13T08:29:55.757Z,28.7
2018-08-13T08:30:55.727Z,28.9
2018-08-13T08:31:56.536Z,28.7
2018-08-13T08:32:56.451Z,28.8
2018-08-13T08:33:56.409Z,28.9
2018-08-13T08:34:56.321Z,29
2018-08-13T08:35:56.271Z,29.2
2018-08-13T08:36:56.184Z,29.4
2018-08-13T08:37:56.094Z,29.3
2018-08-13T08:38:57.677Z,29.2
2018-08-13T08:39:57.604Z,29.2
2018-08-13T08:41:01.837Z,29.2
2018-08-13T08:42:01.753Z,29.3
2018-08-13T08:43:01.667Z,29.4
2018-08-13T08:44:01.588Z,29.5
2018-08-13T08:45:04.431Z,29.6
2018-08-13T08:46:04.738Z,29.3
2018-08-13T08:47:05.401Z,29.1
2018-08-13T08:48:06.322Z,29.2
2018-08-13T08:49:06.704Z,29.2
2018-08-13T08:50:06.618Z,29.2
2018-08-13T08:51:06.558Z,29.3
2018-08-13T08:52:06.465Z,29.4
2018-08-13T08:53:06.386Z,29.5
2018-08-13T08:54:06.509Z,29.5
2018-08-13T08:55:06.423Z,29.5
2018-08-13T08:56:06.321Z,29.6
2018-08-13T08:57:06.490Z,29.7
2018-08-13T08:58:06.387Z,29.5
2018-08-13T08:59:06.762Z,29.4
2018-08-13T09:00:06.659Z,29.5
2018-08-13T09:01:06.591Z,29.4
2018-08-13T09:02:06.511Z,29.5
2018-08-13T09:03:06.413Z,29.5
2018-08-13T09:04:07.023Z,29.5
2018-08-13T09:05:06.923Z,29.7
2018-08-13T09:06:06.833Z,29.7
2018-08-13T09:07:06.981Z,29.8
2018-08-13T09:08:06.901Z,29.9
2018-08-13T09:09:07.259Z,29.9
2018-08-13T09:10:07.407Z,29.9
2018-08-13T09:11:07.333Z,29.9
2018-08-13T09:12:07.255Z,29.8
2018-08-13T09:13:07.194Z,29.7
2018-08-13T09:14:07.464Z,29.6
2018-08-13T09:15:07.523Z,29.5
2018-08-13T09:16:10.308Z,29.6
2018-08-13T09:17:10.235Z,29.6
2018-08-13T09:18:10.150Z,29.6
2018-08-13T09:19:10.902Z,29.6
2018-08-13T09:20:11.249Z,29.6
2018-08-13T09:21:11.162Z,29.6
2018-08-13T09:22:11.073Z,29.6
2018-08-13T09:23:11.006Z,29.6
2018-08-13T09:24:10.928Z,29.6
2018-08-13T09:25:11.132Z,29.6
2018-08-13T09:26:11.053Z,29.6
2018-08-13T09:27:10.961Z,29.6
2018-08-13T09:28:10.892Z,29.7
2018-08-13T09:29:11.254Z,29.7
2018-08-13T09:30:11.161Z,29.8
2018-08-13T09:31:11.070Z,29.9
2018-08-13T09:32:10.971Z,29.9
2018-08-13T09:33:10.870Z,30
2018-08-13T09:34:10.813Z,30.1
2018-08-13T09:35:10.739Z,30.2
2018-08-13T09:36:10.642Z,30.2
2018-08-13T09:37:10.566Z,30.3
2018-08-13T09:38:10.473Z,30.2
2018-08-13T09:39:10.840Z,30
2018-08-13T09:40:10.749Z,30
2018-08-13T09:41:10.910Z,29.9
2018-08-13T09:42:10.840Z,29.9
2018-08-13T09:43:10.742Z,30
2018-08-13T09:44:10.645Z,29.9
2018-08-13T09:45:10.663Z,30
2018-08-13T09:46:10.581Z,30
2018-08-13T09:47:10.496Z,30
2018-08-13T09:48:10.619Z,30
2018-08-13T09:49:11.522Z,30
2018-08-13T09:50:11.485Z,30
2018-08-13T09:51:11.446Z,30.1
2018-08-13T09:52:14.342Z,30
2018-08-13T09:53:14.264Z,30
2018-08-13T09:54:14.168Z,30.1
2018-08-13T09:55:14.103Z,30.1
2018-08-13T09:56:14.031Z,30.2
2018-08-13T09:57:13.946Z,30
2018-08-13T09:58:13.865Z,30
2018-08-13T09:59:14.294Z,30.1
2018-08-13T10:00:14.456Z,30.1
2018-08-13T10:01:14.739Z,30.3
2018-08-13T10:02:14.662Z,30.4
2018-08-13T10:03:14.572Z,30.4
2018-08-13T10:04:14.485Z,30.4
2018-08-13T10:05:14.386Z,30.3
2018-08-13T10:06:14.550Z,30.4
2018-08-13T10:07:14.471Z,30.4
2018-08-13T10:08:14.399Z,30.3
2018-08-13T10:09:14.806Z,30.2
2018-08-13T10:10:14.854Z,30.2
2018-08-13T10:11:14.787Z,30.2
2018-08-13T10:12:14.705Z,30.2
2018-08-13T10:13:14.617Z,29.9
2018-08-13T10:14:14.542Z,29.8
2018-08-13T10:15:14.450Z,29.8
2018-08-13T10:16:14.387Z,29.8
2018-08-13T10:17:14.300Z,29.8
2018-08-13T10:18:14.680Z,29.8
2018-08-13T10:19:15.267Z,29.8
2018-08-13T10:20:15.168Z,30
2018-08-13T10:21:15.085Z,29.9
2018-08-13T10:22:15.024Z,30
2018-08-13T10:23:14.930Z,29.9
2018-08-13T10:24:14.857Z,29.8
2018-08-13T10:25:14.776Z,29.7
2018-08-13T10:26:14.936Z,29.9
2018-08-13T10:27:14.872Z,29.8
2018-08-13T10:28:14.787Z,29.9
2018-08-13T10:29:15.164Z,29.9
2018-08-13T10:30:15.099Z,29.9
2018-08-13T10:31:15.010Z,29.9
2018-08-13T10:32:14.931Z,29.9
2018-08-13T10:33:14.910Z,30
2018-08-13T10:34:14.821Z,29.9
2018-08-13T10:35:14.746Z,29.8
2018-08-13T10:36:14.662Z,29.8
2018-08-13T10:37:14.563Z,30
2018-08-13T10:38:14.513Z,30
2018-08-13T10:39:14.868Z,29.9
2018-08-13T10:40:14.777Z,29.9
2018-08-13T10:41:14.682Z,29.8
2018-08-13T10:42:14.582Z,29.6
2018-08-13T10:43:17.208Z,29.6
2018-08-13T10:44:17.126Z,29.7
2018-08-13T10:45:18.042Z,29.7
2018-08-13T10:46:17.957Z,29.7
2018-08-13T10:47:17.883Z,29.7
2018-08-13T10:48:17.833Z,29.7
2018-08-13T10:49:18.229Z,29.7
2018-08-13T10:50:18.146Z,29.7
2018-08-13T10:51:20.413Z,29.6
2018-08-13T10:52:20.370Z,29.6
2018-08-13T10:53:20.265Z,29.6
2018-08-13T10:54:20.196Z,29.3
2018-08-13T10:55:20.105Z,29.4
2018-08-13T10:56:20.036Z,29.5
2018-08-13T10:57:19.948Z,29.6
2018-08-13T10:58:19.874Z,29.7
2018-08-13T10:59:20.242Z,29.7
2018-08-13T11:00:20.150Z,29.7
2018-08-13T11:01:20.075Z,29.7
2018-08-13T11:02:19.976Z,29.7
2018-08-13T11:03:19.908Z,29.6
2018-08-13T11:04:19.836Z,29.7
2018-08-13T11:05:19.822Z,29.6
2018-08-13T11:06:19.747Z,29.6
2018-08-13T11:07:19.653Z,29.6
2018-08-13T11:08:19.564Z,29.6
2018-08-13T11:09:19.916Z,29.4
2018-08-13T11:10:20.044Z,29.3
2018-08-13T11:11:20.169Z,29.4
2018-08-13T11:12:20.093Z,29.3
2018-08-13T11:13:20.123Z,29.4
2018-08-13T11:14:20.181Z,29.4
2018-08-13T11:15:20.102Z,29.4
2018-08-13T11:16:20.025Z,29.4
2018-08-13T11:17:19.973Z,29.4
2018-08-13T11:18:19.882Z,29.4
2018-08-13T11:19:22.858Z,29.4
2018-08-13T11:20:22.870Z,29.3
2018-08-13T11:21:22.797Z,29.3
2018-08-13T11:22:22.721Z,29.4
2018-08-13T11:23:22.633Z,29.2
2018-08-13T11:24:22.565Z,29.1
2018-08-13T11:25:22.736Z,29.1
2018-08-13T11:26:22.887Z,29
2018-08-13T11:27:22.814Z,28.9
2018-08-13T11:28:22.736Z,28.9
2018-08-13T11:29:23.076Z,28.7
2018-08-13T11:30:23.019Z,28.6
2018-08-13T11:31:22.972Z,28.7
2018-08-13T11:32:23.099Z,28.8
2018-08-13T11:33:23.011Z,28.9
2018-08-13T11:34:22.911Z,28.8
2018-08-13T11:35:23.056Z,28.8
2018-08-13T11:36:26.691Z,28.7
2018-08-13T11:37:26.603Z,28.8
2018-08-13T11:38:26.531Z,28.6
2018-08-13T11:39:26.932Z,28.7
2018-08-13T11:40:26.845Z,28.9
2018-08-13T11:41:26.772Z,28.9
2018-08-13T11:42:26.672Z,29
2018-08-13T11:43:27.587Z,28.9
2018-08-13T11:44:27.508Z,28.9
2018-08-13T11:45:27.428Z,28.9
2018-08-13T11:46:27.737Z,28.9
2018-08-13T11:47:28.034Z,28.8
2018-08-13T11:48:30.941Z,28.7
2018-08-13T11:49:31.290Z,28.6
2018-08-13T11:50:31.206Z,28.6
2018-08-13T11:51:31.154Z,28.7
2018-08-13T11:52:31.292Z,28.9
2018-08-13T11:53:31.444Z,28.8
2018-08-13T11:54:31.350Z,28.8
2018-08-13T11:55:31.261Z,28.7
2018-08-13T11:56:31.625Z,28.6
2018-08-13T11:57:32.108Z,28.5
2018-08-13T11:58:32.048Z,28.4
2018-08-13T11:59:35.160Z,28.4
2018-08-13T12:00:35.084Z,28.4
2018-08-13T12:01:35.030Z,28.4
2018-08-13T12:02:34.939Z,28.5
2018-08-13T12:03:34.843Z,28.6
2018-08-13T12:04:34.756Z,28.7
2018-08-13T12:05:35.677Z,28.7
2018-08-13T12:06:35.589Z,28.6
2018-08-13T12:07:35.507Z,28.6
2018-08-13T12:08:35.421Z,28.5
2018-08-13T12:09:35.937Z,28.5
2018-08-13T12:10:35.853Z,28.4
2018-08-13T12:11:35.781Z,28.4
2018-08-13T12:12:35.731Z,28.4
2018-08-13T12:13:35.646Z,28.4
2018-08-13T12:14:35.623Z,28.4
2018-08-13T12:15:35.552Z,28.4
2018-08-13T12:16:35.457Z,28.5
2018-08-13T12:17:35.361Z,28.6
2018-08-13T12:18:35.286Z,28.6
2018-08-13T12:19:36.049Z,28.6
2018-08-13T12:20:36.371Z,28.7
2018-08-13T12:21:36.277Z,28.6
2018-08-13T12:22:36.200Z,28.6
2018-08-13T12:23:36.424Z,28.6
2018-08-13T12:24:36.334Z,28.6
2018-08-13T12:25:36.510Z,28.5
2018-08-13T12:26:36.426Z,28.5
2018-08-13T12:27:36.340Z,28.5
2018-08-13T12:28:38.944Z,27.9
2018-08-13T12:29:39.325Z,27.7
2018-08-13T12:30:39.222Z,28
2018-08-13T12:31:39.131Z,28.1
2018-08-13T12:32:39.069Z,28.1
2018-08-13T12:33:39.008Z,28.2
2018-08-13T12:34:38.917Z,28.1
2018-08-13T12:35:38.827Z,28.3
2018-08-13T12:36:38.732Z,28.3
2018-08-13T12:37:38.911Z,28.4
2018-08-13T12:38:38.844Z,28.5
2018-08-13T12:39:39.431Z,28.6
2018-08-13T12:40:39.343Z,28.6
2018-08-13T12:41:39.248Z,28.6
2018-08-13T12:42:39.211Z,28.4
2018-08-13T12:43:39.340Z,28.3
2018-08-13T12:44:39.277Z,28.3
2018-08-13T12:45:39.201Z,28.2
2018-08-13T12:46:39.777Z,28.2
2018-08-13T12:47:39.678Z,28.1
2018-08-13T12:48:39.588Z,28.1
2018-08-13T12:49:40.449Z,28
2018-08-13T12:50:40.370Z,28.1
2018-08-13T12:51:40.523Z,28.1
2018-08-13T12:52:40.485Z,28
2018-08-13T12:53:40.427Z,28
2018-08-13T12:54:40.357Z,28
2018-08-13T12:55:40.266Z,28.1
2018-08-13T12:56:40.852Z,28.1
2018-08-13T12:57:40.783Z,28
2018-08-13T12:58:40.689Z,28
2018-08-13T12:59:41.107Z,28
2018-08-13T13:00:41.053Z,27.9
2018-08-13T13:01:40.969Z,27.8
2018-08-13T13:02:40.889Z,27.9
2018-08-13T13:03:40.816Z,27.8
2018-08-13T13:04:40.725Z,27.8
2018-08-13T13:05:40.686Z,27.8
2018-08-13T13:06:40.618Z,27.9
2018-08-13T13:07:40.540Z,27.8
2018-08-13T13:08:40.469Z,27.9
2018-08-13T13:09:41.088Z,27.9
2018-08-13T13:10:41.026Z,27.9
2018-08-13T13:11:40.937Z,28
2018-08-13T13:12:40.847Z,27.9
2018-08-13T13:13:41.018Z,28
2018-08-13T13:14:41.015Z,27.9
2018-08-13T13:15:41.089Z,27.9
2018-08-13T13:16:41.042Z,27.9
2018-08-13T13:17:40.961Z,27.9
2018-08-13T13:18:40.859Z,27.9
2018-08-13T13:19:41.242Z,27.9
2018-08-13T13:20:41.587Z,28
2018-08-13T13:21:42.036Z,28
2018-08-13T13:22:41.956Z,28
2018-08-13T13:23:41.885Z,28
2018-08-13T13:24:41.807Z,27.6
2018-08-13T13:25:41.736Z,27.1
2018-08-13T13:26:41.875Z,27.1